Time;durP1;ratioP1;P1;durP2;ratioP2;P2;SDS_P1;SDS_P2;PMS_P1;PMS_P2;Temp;Humidity;BMP_temperature;BMP_pressure;BME280_temperature;BME280_humidity;BME280_pressure;Samples;Min_cycle;Max_cycle;Signal;HPM_P1;HPM_P2
2021/03/12 00:00:43;;;;;;;12.45;2.95;;;8.00;81.00;;;;;;5073804;28;20028;-73
2021/03/12 00:03:14;;;;;;;13.52;2.60;;;8.00;80.90;;;;;;5073786;28;20120;-73
2021/03/12 00:05:47;;;;;;;11.05;2.45;;;8.00;80.90;;;;;;5074801;28;20439;-72
2021/03/12 00:08:13;;;;;;;13.07;2.55;;;8.10;80.70;;;;;;5073656;28;20028;-73
2021/03/12 00:10:38;;;;;;;9.15;3.03;;;8.10;80.50;;;;;;5074783;28;20021;-73
2021/03/12 00:13:04;;;;;;;7.47;2.28;;;8.10;80.20;;;;;;5074687;28;20040;-73
2021/03/12 00:15:30;;;;;;;13.52;2.05;;;8.00;80.10;;;;;;5073379;28;20501;-74
2021/03/12 00:17:56;;;;;;;13.23;2.88;;;8.00;80.00;;;;;;5073329;28;20025;-73
2021/03/12 00:20:24;;;;;;;10.30;2.97;;;8.10;80.00;;;;;;5073302;28;20025;-73
2021/03/12 00:22:51;;;;;;;13.18;2.90;;;8.10;79.90;;;;;;5073257;28;20119;-73
2021/03/12 00:25:23;;;;;;;6.03;1.90;;;8.00;79.50;;;;;;5073203;28;20039;-73
2021/03/12 00:27:48;;;;;;;6.15;1.88;;;8.00;79.40;;;;;;5073030;28;20020;-73
2021/03/12 00:30:14;;;;;;;8.93;2.25;;;8.00;79.30;;;;;;5073061;28;20595;-73
2021/03/12 00:32:40;;;;;;;9.38;1.90;;;8.00;79.40;;;;;;5073040;28;20468;-73
2021/03/12 00:35:07;;;;;;;11.77;2.42;;;8.00;79.30;;;;;;5074266;28;20100;-73
2021/03/12 00:37:34;;;;;;;10.65;2.53;;;8.00;79.10;;;;;;5074185;28;20058;-73
2021/03/12 00:40:01;;;;;;;11.57;2.28;;;8.00;79.00;;;;;;5074112;28;20093;-73
2021/03/12 00:42:27;;;;;;;12.40;2.28;;;8.00;79.10;;;;;;5072855;28;20020;-73
2021/03/12 00:44:52;;;;;;;10.02;2.10;;;8.00;78.90;;;;;;5072767;28;20498;-73
2021/03/12 00:47:18;;;;;;;7.93;2.03;;;8.00;78.80;;;;;;5074704;28;20052;-73
2021/03/12 00:49:44;;;;;;;7.82;2.33;;;7.90;78.60;;;;;;5072840;28;20016;-73
2021/03/12 00:52:09;;;;;;;9.07;2.03;;;7.90;78.60;;;;;;5072702;28;20020;-73
2021/03/12 00:54:35;;;;;;;9.63;2.30;;;7.90;78.50;;;;;;5072662;28;20016;-73
2021/03/12 00:57:01;;;;;;;7.78;1.80;;;8.00;78.60;;;;;;5074002;28;20392;-73
2021/03/12 00:59:27;;;;;;;9.70;2.42;;;7.90;78.50;;;;;;5072786;28;20028;-73
2021/03/12 01:01:53;;;;;;;9.82;2.35;;;7.90;78.50;;;;;;5074105;28;20036;-73
2021/03/12 01:04:18;;;;;;;9.77;2.25;;;7.90;78.40;;;;;;5074447;28;20109;-73
2021/03/12 01:06:44;;;;;;;13.90;3.10;;;7.90;78.40;;;;;;5073557;28;20105;-73
2021/03/12 01:09:09;;;;;;;10.00;2.17;;;7.80;78.30;;;;;;5072956;28;20387;-73
2021/03/12 01:11:35;;;;;;;12.32;2.33;;;7.80;78.50;;;;;;5073632;28;20438;-73
2021/03/12 01:14:01;;;;;;;6.25;1.80;;;7.80;78.60;;;;;;5073602;28;20063;-73
2021/03/12 01:16:26;;;;;;;12.80;2.30;;;7.80;78.60;;;;;;5073583;28;20439;-73
2021/03/12 01:18:52;;;;;;;11.50;2.10;;;7.80;78.60;;;;;;5072244;28;20027;-73
2021/03/12 01:21:18;;;;;;;7.28;1.80;;;7.80;78.50;;;;;;5072299;28;20029;-73
2021/03/12 01:23:44;;;;;;;8.80;1.85;;;7.80;78.50;;;;;;5073409;28;20025;-73
2021/03/12 01:26:10;;;;;;;5.20;1.92;;;7.80;78.60;;;;;;5072013;28;20029;-73
2021/03/12 01:28:35;;;;;;;10.95;2.63;;;7.80;78.40;;;;;;5072000;28;20048;-73
2021/03/12 01:31:01;;;;;;;8.95;2.13;;;7.70;78.30;;;;;;5072009;28;20024;-73
2021/03/12 01:33:26;;;;;;;7.60;1.70;;;7.80;78.30;;;;;;5071944;28;20017;-73
2021/03/12 01:35:52;;;;;;;10.10;2.08;;;7.70;78.40;;;;;;5071871;28;20063;-73
2021/03/12 01:38:18;;;;;;;9.88;2.45;;;7.80;78.50;;;;;;5071806;28;20043;-73
2021/03/12 01:40:45;;;;;;;9.18;2.17;;;7.80;78.40;;;;;;5073606;28;20021;-73
2021/03/12 01:43:12;;;;;;;12.15;2.42;;;7.70;78.20;;;;;;5071878;28;20035;-73
2021/03/12 01:45:41;;;;;;;11.40;2.45;;;7.70;78.40;;;;;;5073214;28;20033;-73
2021/03/12 01:48:09;;;;;;;10.82;2.13;;;7.80;78.30;;;;;;5073198;28;20028;-73
2021/03/12 01:50:36;;;;;;;9.13;2.22;;;7.80;78.30;;;;;;5072988;28;20016;-73
2021/03/12 01:53:04;;;;;;;9.10;2.50;;;7.70;78.30;;;;;;5073199;28;20023;-73
2021/03/12 01:55:31;;;;;;;10.35;2.30;;;7.80;78.30;;;;;;5071673;28;20513;-73
2021/03/12 01:57:57;;;;;;;9.13;2.10;;;7.80;78.10;;;;;;5073108;28;20024;-73
2021/03/12 02:00:23;;;;;;;6.68;2.08;;;7.80;78.10;;;;;;5071706;28;20025;-73
2021/03/12 02:02:49;;;;;;;14.82;2.53;;;7.80;78.00;;;;;;5073034;28;20077;-73
2021/03/12 02:05:16;;;;;;;8.27;2.38;;;7.70;77.90;;;;;;5071652;28;20029;-73
2021/03/12 02:07:42;;;;;;;8.10;2.28;;;7.70;77.80;;;;;;5071519;28;20529;-73
2021/03/12 02:10:13;;;;;;;10.82;2.45;;;7.70;77.80;;;;;;5073019;28;20487;-73
2021/03/12 02:12:56;;;;;;;13.93;2.92;;;7.70;77.80;;;;;;5072631;28;20044;-73
2021/03/12 02:15:54;;;;;;;11.93;2.78;;;7.70;77.80;;;;;;5072937;28;20477;-73
2021/03/12 02:18:34;;;;;;;13.77;2.75;;;7.60;78.00;;;;;;5053615;28;20028;-73
2021/03/12 02:21:22;;;;;;;13.35;2.38;;;7.60;78.10;;;;;;5070771;28;20299;-73
2021/03/12 02:23:51;;;;;;;11.25;2.72;;;7.60;78.10;;;;;;5053783;28;20028;-73
2021/03/12 02:26:32;;;;;;;11.48;2.55;;;7.60;78.20;;;;;;5053777;28;20033;-73
2021/03/12 02:29:00;;;;;;;11.45;2.75;;;7.60;78.30;;;;;;5053897;28;20541;-73
2021/03/12 02:31:27;;;;;;;13.68;2.17;;;7.60;78.40;;;;;;5053688;28;20111;-73
2021/03/12 02:33:55;;;;;;;9.43;2.72;;;7.60;78.40;;;;;;5070980;28;20025;-72
2021/03/12 02:36:22;;;;;;;9.65;2.47;;;7.60;78.40;;;;;;5070364;28;20640;-73
2021/03/12 02:38:50;;;;;;;11.57;2.30;;;7.60;78.50;;;;;;5053661;28;20098;-73
2021/03/12 02:41:18;;;;;;;9.43;2.35;;;7.60;78.50;;;;;;5070993;28;20033;-73
2021/03/12 02:43:45;;;;;;;10.85;2.40;;;7.60;78.50;;;;;;5070430;28;20029;-73
2021/03/12 02:46:11;;;;;;;10.07;2.20;;;7.60;78.50;;;;;;5070322;28;20107;-73
2021/03/12 02:48:38;;;;;;;10.48;2.00;;;7.60;78.40;;;;;;5053524;28;20650;-75
2021/03/12 02:51:05;;;;;;;16.13;3.45;;;7.60;78.50;;;;;;5053560;28;20021;-73
2021/03/12 02:53:34;;;;;;;13.23;2.40;;;7.60;78.50;;;;;;5057969;28;20064;-73
2021/03/12 02:56:00;;;;;;;15.00;2.75;;;7.60;78.50;;;;;;5070944;28;20036;-73
2021/03/12 02:58:26;;;;;;;9.98;2.15;;;7.50;78.40;;;;;;5072429;28;20025;-73
2021/03/12 03:00:54;;;;;;;9.73;2.33;;;7.50;78.40;;;;;;5072428;28;20032;-73
2021/03/12 03:03:20;;;;;;;13.35;2.50;;;7.50;78.50;;;;;;5072366;28;20024;-74
2021/03/12 03:05:47;;;;;;;11.13;2.47;;;7.50;78.50;;;;;;5072243;28;20031;-73
2021/03/12 03:08:13;;;;;;;8.18;2.03;;;7.50;78.50;;;;;;5072262;28;20060;-73
2021/03/12 03:10:39;;;;;;;8.50;2.20;;;7.50;78.60;;;;;;5071076;28;20104;-73
2021/03/12 03:13:06;;;;;;;10.40;2.45;;;7.50;78.60;;;;;;5070981;28;20047;-73
2021/03/12 03:15:32;;;;;;;13.00;2.63;;;7.50;78.50;;;;;;5070849;28;20029;-73
2021/03/12 03:17:59;;;;;;;9.88;2.65;;;7.50;78.50;;;;;;5070738;28;20421;-73
2021/03/12 03:20:26;;;;;;;10.65;3.15;;;7.50;78.50;;;;;;5070741;28;20078;-73
2021/03/12 03:22:52;;;;;;;9.60;2.53;;;7.40;78.40;;;;;;5070801;28;20383;-73
2021/03/12 03:25:18;;;;;;;13.38;3.00;;;7.40;78.40;;;;;;5072371;28;20078;-73
2021/03/12 03:27:43;;;;;;;13.40;3.00;;;7.40;78.40;;;;;;5070724;28;20515;-73
2021/03/12 03:30:12;;;;;;;11.23;2.25;;;7.30;78.30;;;;;;5070591;28;20048;-73
2021/03/12 03:32:38;;;;;;;10.27;2.38;;;7.30;78.50;;;;;;5075071;28;20096;-73
2021/03/12 03:35:06;;;;;;;12.27;3.03;;;7.30;78.50;;;;;;5074047;28;20059;-73
2021/03/12 03:37:32;;;;;;;10.00;2.00;;;7.30;78.50;;;;;;5074128;28;20064;-73
2021/03/12 03:39:59;;;;;;;11.93;2.92;;;7.30;78.60;;;;;;5074172;28;20063;-73
2021/03/12 03:42:29;;;;;;;13.02;2.65;;;7.30;78.50;;;;;;5075226;28;20112;-73
2021/03/12 03:44:57;;;;;;;11.98;2.40;;;7.30;78.50;;;;;;5073850;28;20024;-73
2021/03/12 03:47:27;;;;;;;9.25;1.90;;;7.30;78.60;;;;;;5073981;28;20476;-73
2021/03/12 03:49:53;;;;;;;7.72;2.05;;;7.30;78.50;;;;;;5075061;28;20021;-73
2021/03/12 03:52:21;;;;;;;14.40;2.40;;;7.30;78.50;;;;;;5073766;28;20020;-73
2021/03/12 03:54:50;;;;;;;9.77;2.08;;;7.20;78.40;;;;;;5075147;28;20013;-73
2021/03/12 03:57:17;;;;;;;8.05;2.25;;;7.20;78.40;;;;;;5073713;28;20102;-73
2021/03/12 03:59:44;;;;;;;9.98;2.17;;;7.20;78.50;;;;;;5073579;28;20372;-73
2021/03/12 04:02:14;;;;;;;10.65;2.25;;;7.20;78.60;;;;;;5074862;28;20013;-73
2021/03/12 04:04:43;;;;;;;12.38;2.60;;;7.20;78.70;;;;;;5073530;28;20016;-73
2021/03/12 04:07:09;;;;;;;9.38;2.10;;;7.20;78.80;;;;;;5074994;28;20024;-73
2021/03/12 04:09:36;;;;;;;8.68;2.10;;;7.20;78.80;;;;;;5074941;28;20031;-73
2021/03/12 04:12:02;;;;;;;9.13;2.53;;;7.20;78.80;;;;;;5074589;28;20072;-73
2021/03/12 04:14:30;;;;;;;10.32;2.35;;;7.20;78.80;;;;;;5074568;28;20024;-73
2021/03/12 04:16:56;;;;;;;8.88;1.63;;;7.20;78.80;;;;;;5073188;28;20415;-73
2021/03/12 04:19:24;;;;;;;13.48;2.15;;;7.20;78.80;;;;;;5073248;28;20020;-73
2021/03/12 04:21:50;;;;;;;8.75;2.40;;;7.20;78.90;;;;;;5073197;28;20035;-73
2021/03/12 04:24:16;;;;;;;6.93;1.70;;;7.10;78.90;;;;;;5075099;28;20376;-73
2021/03/12 04:26:42;;;;;;;10.88;2.30;;;7.10;78.90;;;;;;5074387;28;20388;-73
2021/03/12 04:29:08;;;;;;;10.23;2.00;;;6.90;78.90;;;;;;5073028;28;20023;-73
2021/03/12 04:31:34;;;;;;;7.28;1.98;;;6.90;79.10;;;;;;5074302;28;20480;-73
2021/03/12 04:33:59;;;;;;;13.68;2.17;;;6.90;79.30;;;;;;5072894;28;20119;-73
2021/03/12 04:36:26;;;;;;;10.75;1.92;;;6.80;79.30;;;;;;5072792;28;20115;-73
2021/03/12 04:38:52;;;;;;;7.70;1.45;;;6.80;79.40;;;;;;5074195;28;20052;-73
2021/03/12 04:41:18;;;;;;;11.20;2.10;;;6.70;79.40;;;;;;5072763;28;20174;-73
2021/03/12 04:43:44;;;;;;;13.00;1.60;;;6.70;79.50;;;;;;5073830;28;20024;-73
2021/03/12 04:46:12;;;;;;;6.25;1.77;;;6.70;79.60;;;;;;5072673;28;20119;-73
2021/03/12 04:48:39;;;;;;;9.07;1.80;;;6.60;79.60;;;;;;5072838;28;20063;-73
2021/03/12 04:51:14;;;;;;;11.75;2.00;;;6.60;79.70;;;;;;5074055;28;20024;-73
2021/03/12 04:53:40;;;;;;;8.95;1.70;;;6.50;79.70;;;;;;5072752;28;20490;-73
2021/03/12 04:56:07;;;;;;;9.90;1.88;;;6.50;79.80;;;;;;5074410;28;20024;-73
2021/03/12 04:58:33;;;;;;;10.23;2.20;;;6.50;79.90;;;;;;5074341;28;20150;-73
2021/03/12 05:00:59;;;;;;;8.73;1.65;;;6.50;80.00;;;;;;5072621;28;20024;-73
2021/03/12 05:03:29;;;;;;;10.13;1.77;;;6.50;80.00;;;;;;5072282;28;20024;-73
2021/03/12 05:05:56;;;;;;;5.53;1.55;;;6.40;80.00;;;;;;5072450;28;20504;-73
2021/03/12 05:08:24;;;;;;;6.38;1.58;;;6.50;80.00;;;;;;5073671;28;20025;-73
2021/03/12 05:11:01;;;;;;;8.95;2.05;;;6.50;80.00;;;;;;5072323;28;20115;-73
2021/03/12 05:13:27;;;;;;;10.98;1.90;;;6.50;80.00;;;;;;5073440;28;20051;-73
2021/03/12 05:15:53;;;;;;;8.18;1.90;;;6.50;80.00;;;;;;5073512;28;20032;-73
2021/03/12 05:18:19;;;;;;;9.00;1.80;;;6.40;80.00;;;;;;5072157;28;20021;-73
2021/03/12 05:20:45;;;;;;;9.70;2.10;;;6.40;80.00;;;;;;5072018;28;20025;-73
2021/03/12 05:23:11;;;;;;;7.68;2.08;;;6.30;80.10;;;;;;5071870;28;20048;-73
2021/03/12 05:25:36;;;;;;;8.20;1.70;;;6.30;80.20;;;;;;5071740;28;20064;-73
2021/03/12 05:28:02;;;;;;;7.85;1.63;;;6.20;80.20;;;;;;5071751;28;20017;-72
2021/03/12 05:30:29;;;;;;;8.68;1.60;;;6.30;80.40;;;;;;5073208;28;20376;-73
2021/03/12 05:32:55;;;;;;;8.85;1.95;;;6.20;80.40;;;;;;5071649;28;20433;-73
2021/03/12 05:35:21;;;;;;;8.77;1.90;;;6.20;80.40;;;;;;5073017;28;20060;-73
2021/03/12 05:37:46;;;;;;;7.43;2.10;;;6.20;80.40;;;;;;5068998;28;20028;-73
2021/03/12 05:40:12;;;;;;;11.10;2.38;;;6.10;80.40;;;;;;5073163;28;20028;-73
2021/03/12 05:42:41;;;;;;;9.13;2.17;;;6.10;80.50;;;;;;5072171;28;20029;-73
2021/03/12 05:45:07;;;;;;;9.05;1.63;;;6.10;80.60;;;;;;5071776;28;20042;-73
2021/03/12 05:47:35;;;;;;;10.82;2.78;;;6.10;80.70;;;;;;5071682;28;20388;-73
2021/03/12 05:50:01;;;;;;;7.55;1.75;;;6.00;80.70;;;;;;5073098;28;20454;-73
2021/03/12 05:52:27;;;;;;;9.68;1.88;;;6.10;80.80;;;;;;5072548;28;20051;-73
2021/03/12 05:54:54;;;;;;;12.02;2.92;;;6.00;80.80;;;;;;5070692;28;20044;-73
2021/03/12 05:57:22;;;;;;;11.75;1.95;;;6.10;80.80;;;;;;5071297;28;20020;-72
2021/03/12 05:59:48;;;;;;;5.47;1.92;;;6.00;80.80;;;;;;5071264;28;20048;-73
2021/03/12 06:02:13;;;;;;;6.53;1.55;;;6.00;80.80;;;;;;5071226;28;20055;-72
2021/03/12 06:04:39;;;;;;;8.88;2.00;;;6.00;80.80;;;;;;5072631;28;20115;-73
2021/03/12 06:07:05;;;;;;;7.72;2.08;;;6.10;80.80;;;;;;5071404;28;20038;-73
2021/03/12 06:09:30;;;;;;;9.02;2.05;;;6.00;80.80;;;;;;5071484;28;20027;-73
2021/03/12 06:11:56;;;;;;;7.18;1.90;;;6.00;80.80;;;;;;5071342;28;20040;-73
2021/03/12 06:14:57;;;;;;;9.00;1.90;;;6.10;80.80;;;;;;5072738;28;20016;-73
2021/03/12 06:17:44;;;;;;;10.75;2.50;;;6.10;80.70;;;;;;5071414;28;20078;-73
2021/03/12 06:20:16;;;;;;;9.55;2.05;;;6.10;80.70;;;;;;5071370;28;20016;-72
2021/03/12 06:22:56;;;;;;;7.60;1.90;;;6.10;80.60;;;;;;5072400;28;20356;-73
2021/03/12 06:25:31;;;;;;;6.15;2.13;;;6.10;80.60;;;;;;5090510;28;20495;-73
2021/03/12 06:28:13;;;;;;;7.32;2.45;;;6.10;80.60;;;;;;5090564;28;20162;-72
2021/03/12 06:30:39;;;;;;;15.35;2.72;;;6.10;80.60;;;;;;5090724;28;20491;-73
2021/03/12 06:33:05;;;;;;;9.38;2.28;;;6.10;80.60;;;;;;5090695;28;20025;-73
2021/03/12 06:35:38;;;;;;;9.88;2.03;;;6.10;80.50;;;;;;5090713;28;20048;-73
2021/03/12 06:38:09;;;;;;;9.50;2.50;;;6.10;80.40;;;;;;5090755;28;20040;-73
2021/03/12 06:40:38;;;;;;;10.63;2.00;;;6.20;80.40;;;;;;5090513;28;20035;-73
2021/03/12 06:43:12;;;;;;;8.82;2.58;;;6.20;80.40;;;;;;5090355;28;20032;-73
2021/03/12 06:45:40;;;;;;;6.15;1.80;;;6.20;80.40;;;;;;5090394;28;20411;-73
2021/03/12 06:48:18;;;;;;;14.45;3.10;;;6.20;80.40;;;;;;5090554;28;20020;-73
2021/03/12 06:50:46;;;;;;;9.45;2.22;;;6.10;80.20;;;;;;5090550;28;20044;-73
2021/03/12 06:53:19;;;;;;;12.50;2.40;;;6.10;80.20;;;;;;5090605;28;20035;-72
2021/03/12 06:55:45;;;;;;;11.55;2.20;;;6.20;80.20;;;;;;5090470;28;20040;-73
2021/03/12 06:58:11;;;;;;;7.72;2.38;;;6.20;80.20;;;;;;5090997;28;20418;-72
2021/03/12 07:00:37;;;;;;;9.57;2.30;;;6.20;80.20;;;;;;5073490;28;20028;-73
2021/03/12 07:03:30;;;;;;;14.88;5.70;;;6.20;80.10;;;;;;5078795;28;20082;-73
2021/03/12 07:06:23;;;;;;;8.38;2.67;;;6.20;80.00;;;;;;5073527;28;20024;-72
2021/03/12 07:08:49;;;;;;;11.05;3.05;;;6.30;80.00;;;;;;5076149;28;20037;-73
2021/03/12 07:11:28;;;;;;;14.60;2.92;;;6.30;80.00;;;;;;5074833;28;20416;-73
2021/03/12 07:13:56;;;;;;;11.32;2.80;;;6.30;79.90;;;;;;5075818;28;20037;-72
2021/03/12 07:16:23;;;;;;;10.70;2.40;;;6.30;79.80;;;;;;5075880;28;20032;-72
2021/03/12 07:18:50;;;;;;;10.00;2.78;;;6.30;79.80;;;;;;5074390;28;20396;-73
2021/03/12 07:21:18;;;;;;;8.10;2.15;;;6.40;79.70;;;;;;5075864;28;20537;-72
2021/03/12 07:23:49;;;;;;;12.50;2.60;;;6.40;79.60;;;;;;5074374;28;20029;-73
2021/03/12 07:26:16;;;;;;;14.43;2.13;;;6.40;79.50;;;;;;5075686;28;20029;-74
2021/03/12 07:28:44;;;;;;;13.80;2.88;;;6.40;79.50;;;;;;5075624;28;20027;-72
2021/03/12 07:31:12;;;;;;;7.88;2.25;;;6.40;79.40;;;;;;5074422;28;20485;-72
2021/03/12 07:33:48;;;;;;;13.25;2.85;;;6.50;79.40;;;;;;5074400;28;20020;-73
2021/03/12 07:36:23;;;;;;;13.63;3.08;;;6.50;79.40;;;;;;5076359;28;20040;-72
2021/03/12 07:38:56;;;;;;;10.63;2.08;;;6.50;79.30;;;;;;5075220;28;20028;-73
2021/03/12 07:41:23;;;;;;;10.65;2.38;;;6.50;79.20;;;;;;5074783;28;20036;-73
2021/03/12 07:43:49;;;;;;;15.93;2.90;;;6.60;79.30;;;;;;5074051;28;20025;-72
2021/03/12 07:46:17;;;;;;;11.77;2.63;;;6.50;79.20;;;;;;5073878;28;20107;-72
2021/03/12 07:48:43;;;;;;;10.05;2.60;;;6.50;79.20;;;;;;5075279;28;20545;-73
2021/03/12 07:51:14;;;;;;;9.93;2.30;;;6.60;79.20;;;;;;5075053;28;20020;-73
2021/03/12 07:53:49;;;;;;;13.88;2.78;;;6.60;79.20;;;;;;5073828;28;20031;-73
2021/03/12 07:59:46;;;;;;;12.00;2.10;;;6.80;79.10;;;;;;5075609;28;20035;-73
2021/03/12 08:02:15;;;;;;;10.70;2.33;;;6.80;78.90;;;;;;5073806;28;20032;-72
2021/03/12 08:04:42;;;;;;;13.48;2.20;;;6.80;78.90;;;;;;5075499;28;20085;-72
2021/03/12 08:07:20;;;;;;;11.70;3.33;;;6.90;78.80;;;;;;5075070;28;20029;-72
2021/03/12 08:10:13;;;;;;;12.60;2.83;;;6.90;78.70;;;;;;5073814;28;20028;-72
2021/03/12 08:12:40;;;;;;;14.10;2.80;;;7.00;78.60;;;;;;5073348;28;20076;-73
2021/03/12 08:15:24;;;;;;;12.50;2.50;;;7.10;79.10;;;;;;5075022;28;20539;-73
2021/03/12 08:17:56;;;;;;;13.13;2.80;;;7.20;78.20;;;;;;5074211;28;20032;-72
2021/03/12 08:20:42;;;;;;;15.70;2.55;;;7.30;78.10;;;;;;5075137;28;20033;-72
2021/03/12 08:23:12;;;;;;;15.63;2.72;;;7.40;78.00;;;;;;5073428;28;20032;-72
2021/03/12 08:25:48;;;;;;;12.98;3.28;;;7.40;77.90;;;;;;5073144;28;20511;-72
2021/03/12 08:28:13;;;;;;;15.90;2.90;;;7.50;77.80;;;;;;5074621;28;20448;-72
2021/03/12 08:30:39;;;;;;;13.20;2.85;;;7.50;77.40;;;;;;5073104;28;20046;-72
2021/03/12 08:33:07;;;;;;;15.20;3.28;;;7.50;77.20;;;;;;5073002;28;20024;-71
2021/03/12 08:35:35;;;;;;;12.02;2.65;;;7.60;77.20;;;;;;5072943;28;20035;-71
2021/03/12 08:38:28;;;;;;;17.83;3.63;;;7.60;77.30;;;;;;5072952;28;20032;-72
2021/03/12 08:41:12;;;;;;;13.43;3.20;;;7.70;77.10;;;;;;5072936;28;20032;-73
2021/03/12 08:43:50;;;;;;;21.60;3.38;;;7.70;77.10;;;;;;5072828;28;20045;-73
2021/03/12 08:46:23;;;;;;;24.88;3.63;;;7.70;76.90;;;;;;5074125;28;20024;-73
2021/03/12 08:48:51;;;;;;;15.02;3.15;;;7.80;76.70;;;;;;5072661;28;20024;-73
2021/03/12 08:51:18;;;;;;;16.05;3.25;;;7.90;76.90;;;;;;5073879;28;20035;-73
2021/03/12 08:53:51;;;;;;;8.73;2.40;;;8.00;76.70;;;;;;5072561;28;20028;-72
2021/03/12 08:56:31;;;;;;;12.57;2.65;;;8.10;76.50;;;;;;5072462;28;20500;-72
2021/03/12 08:58:57;;;;;;;20.15;3.60;;;8.20;76.30;;;;;;5073706;28;20444;-73
2021/03/12 09:01:25;;;;;;;19.27;3.10;;;8.40;75.90;;;;;;5072521;28;20074;-73
2021/03/12 09:03:53;;;;;;;14.20;3.22;;;8.50;75.60;;;;;;5072350;28;20032;-73
2021/03/12 09:06:22;;;;;;;14.85;2.85;;;8.60;75.20;;;;;;5072414;28;20028;-73
2021/03/12 09:08:48;;;;;;;17.17;3.30;;;8.70;75.00;;;;;;5073836;28;20028;-73
2021/03/12 09:11:16;;;;;;;19.52;2.67;;;8.80;75.10;;;;;;5072517;28;20021;-73
2021/03/12 09:13:44;;;;;;;16.02;2.95;;;8.80;75.00;;;;;;5072185;28;20400;-73
2021/03/12 09:16:11;;;;;;;16.08;3.28;;;9.00;74.80;;;;;;5072404;28;20032;-73
2021/03/12 09:18:38;;;;;;;11.43;3.20;;;9.10;74.50;;;;;;5072382;28;20369;-72
2021/03/12 09:21:08;;;;;;;12.32;2.67;;;9.20;74.00;;;;;;5072310;28;20024;-72
2021/03/12 09:23:37;;;;;;;16.58;3.70;;;9.20;74.00;;;;;;5073706;28;20047;-74
2021/03/12 09:26:05;;;;;;;16.83;3.20;;;9.30;73.70;;;;;;5073359;28;20129;-73
2021/03/12 09:28:31;;;;;;;12.18;3.35;;;9.40;73.30;;;;;;5071252;28;20043;-73
2021/03/12 09:30:58;;;;;;;18.92;3.95;;;9.30;73.10;;;;;;5072016;28;20502;-73
2021/03/12 09:33:36;;;;;;;15.68;3.65;;;9.40;72.90;;;;;;5071941;28;20038;-73
2021/03/12 09:36:22;;;;;;;12.20;3.35;;;9.20;72.70;;;;;;5073453;28;20029;-72
2021/03/12 09:38:49;;;;;;;17.35;3.78;;;9.20;72.90;;;;;;5071923;28;20024;-72
2021/03/12 09:41:17;;;;;;;16.25;3.45;;;9.10;73.00;;;;;;5073409;28;20134;-72
2021/03/12 09:43:44;;;;;;;14.05;3.38;;;9.10;73.40;;;;;;5073154;28;20032;-73
2021/03/12 09:46:11;;;;;;;17.10;3.40;;;9.10;73.30;;;;;;5071706;28;20032;-72
2021/03/12 09:48:37;;;;;;;12.40;3.25;;;9.10;73.50;;;;;;5071819;28;20063;-72
2021/03/12 09:51:03;;;;;;;16.63;3.22;;;9.10;73.10;;;;;;5073326;28;20353;-73
2021/03/12 09:53:29;;;;;;;16.05;4.15;;;9.10;73.10;;;;;;5072949;28;20028;-72
2021/03/12 09:55:56;;;;;;;16.17;3.85;;;9.20;72.90;;;;;;5072980;28;20136;-73
2021/03/12 09:58:22;;;;;;;16.92;3.67;;;9.20;72.90;;;;;;5071685;28;20180;-75
2021/03/12 10:00:49;;;;;;;12.30;3.00;;;9.20;73.00;;;;;;5071458;28;20098;-72
2021/03/12 10:03:14;;;;;;;12.43;3.05;;;9.20;73.00;;;;;;5071787;28;20514;-72
2021/03/12 10:05:40;;;;;;;18.25;3.55;;;9.20;72.90;;;;;;5071451;28;20037;-73
2021/03/12 10:08:06;;;;;;;19.50;3.78;;;9.30;72.60;;;;;;5072752;28;20040;-73
2021/03/12 10:10:34;;;;;;;12.85;2.95;;;9.20;72.30;;;;;;5072676;28;20028;-73
2021/03/12 10:13:05;;;;;;;16.88;3.15;;;9.20;72.50;;;;;;5072479;28;20047;-72
2021/03/12 10:15:35;;;;;;;16.55;3.25;;;9.20;72.20;;;;;;5071187;28;20036;-73
2021/03/12 10:18:02;;;;;;;16.35;3.10;;;9.20;72.30;;;;;;5071267;28;20409;-72
2021/03/12 10:20:29;;;;;;;17.92;3.55;;;9.20;72.70;;;;;;5071283;28;20111;-72
2021/03/12 10:23:04;;;;;;;11.07;2.63;;;9.20;72.60;;;;;;5071132;28;20064;-72
2021/03/12 10:25:33;;;;;;;10.10;2.65;;;9.20;72.70;;;;;;5072260;28;20040;-74
2021/03/12 10:28:01;;;;;;;13.88;3.15;;;9.20;72.70;;;;;;5071264;28;20471;-74
2021/03/12 10:30:33;;;;;;;13.77;2.72;;;9.30;72.60;;;;;;5071258;28;20480;-73
2021/03/12 10:33:02;;;;;;;13.82;3.30;;;9.20;72.60;;;;;;5072567;28;20032;-73
2021/03/12 10:35:32;;;;;;;14.10;3.30;;;9.10;72.80;;;;;;5072676;28;20093;-73
2021/03/12 10:37:59;;;;;;;16.05;3.67;;;9.10;73.30;;;;;;5072792;28;20033;-73
2021/03/12 10:40:26;;;;;;;10.70;2.88;;;9.00;73.60;;;;;;5072801;28;20372;-73
2021/03/12 10:42:52;;;;;;;13.75;3.42;;;8.90;74.00;;;;;;5075159;28;20059;-73
2021/03/12 10:45:29;;;;;;;8.45;2.47;;;8.90;74.80;;;;;;5075249;28;20361;-73
2021/03/12 10:48:00;;;;;;;11.98;3.15;;;8.80;75.10;;;;;;5075310;28;20056;-73
2021/03/12 10:50:28;;;;;;;19.17;3.42;;;8.80;75.60;;;;;;5075336;28;20512;-73
2021/03/12 10:53:12;;;;;;;12.48;2.53;;;8.90;75.90;;;;;;5075264;28;20054;-73
2021/03/12 10:55:44;;;;;;;12.23;2.83;;;8.90;76.10;;;;;;5075121;28;20455;-73
2021/03/12 10:58:31;;;;;;;11.43;2.92;;;8.90;75.90;;;;;;5076347;28;20056;-73
2021/03/12 11:01:25;;;;;;;11.30;2.63;;;8.90;75.70;;;;;;5074920;28;20039;-73
2021/03/12 11:03:55;;;;;;;14.32;2.97;;;8.90;75.60;;;;;;5074789;28;20029;-72
2021/03/12 11:06:26;;;;;;;9.63;2.42;;;8.80;76.00;;;;;;5074930;28;20554;-72
2021/03/12 11:08:52;;;;;;;11.90;2.70;;;8.80;76.10;;;;;;5075909;28;20021;-73
2021/03/12 11:11:21;;;;;;;13.02;3.00;;;8.80;76.50;;;;;;5076077;28;20032;-73
2021/03/12 11:13:48;;;;;;;12.88;3.30;;;8.80;76.50;;;;;;5075648;28;20029;-72
2021/03/12 11:16:13;;;;;;;7.22;2.80;;;8.70;76.80;;;;;;5074574;28;20055;-72
2021/03/12 11:18:39;;;;;;;13.88;3.08;;;8.70;77.10;;;;;;5074460;28;20103;-72
2021/03/12 11:21:08;;;;;;;14.55;3.17;;;8.60;77.40;;;;;;5074421;28;20415;-72
2021/03/12 11:23:34;;;;;;;13.73;2.40;;;8.60;77.50;;;;;;5075718;28;20025;-72
2021/03/12 11:26:00;;;;;;;11.52;3.80;;;8.50;77.60;;;;;;5074207;28;20078;-72
2021/03/12 11:28:27;;;;;;;9.55;3.00;;;8.50;77.70;;;;;;5074574;28;20059;-73
2021/03/12 11:30:55;;;;;;;12.70;3.05;;;8.50;77.80;;;;;;5075547;28;20021;-72
2021/03/12 11:37:08;;;;;;;14.50;3.30;;;8.60;77.90;;;;;;5076138;28;20039;-72
2021/03/12 11:39:33;;;;;;;16.38;2.75;;;8.60;78.50;;;;;;5074079;28;20036;-72
2021/03/12 11:41:59;;;;;;;11.77;2.72;;;8.70;77.90;;;;;;5074224;28;20395;-70
2021/03/12 11:44:25;;;;;;;12.90;3.05;;;8.80;77.80;;;;;;5075535;28;20056;-71
2021/03/12 11:46:50;;;;;;;13.05;2.63;;;8.90;77.80;;;;;;5075344;28;20032;-71
2021/03/12 11:49:16;;;;;;;15.63;3.00;;;9.00;77.50;;;;;;5073933;28;20023;-71
2021/03/12 11:51:42;;;;;;;12.95;3.47;;;9.00;77.20;;;;;;5074142;28;20031;-71
2021/03/12 11:54:08;;;;;;;18.23;3.88;;;9.10;77.10;;;;;;5073981;28;20021;-71
2021/03/12 11:56:35;;;;;;;9.32;2.63;;;9.10;76.90;;;;;;5073908;28;20059;-70
2021/03/12 11:59:00;;;;;;;11.25;2.50;;;9.20;76.70;;;;;;5075361;28;20451;-72
2021/03/12 12:01:26;;;;;;;10.13;2.72;;;9.30;76.60;;;;;;5074966;28;20069;-72
2021/03/12 12:03:52;;;;;;;11.98;2.72;;;9.30;76.50;;;;;;5073824;28;20040;-72
2021/03/12 12:06:17;;;;;;;12.63;3.10;;;9.40;76.20;;;;;;5073403;28;20036;-72
2021/03/12 12:08:43;;;;;;;10.80;3.08;;;9.40;75.90;;;;;;5073517;28;20642;-73
2021/03/12 12:11:09;;;;;;;10.32;3.00;;;9.40;75.60;;;;;;5073359;28;20035;-72
2021/03/12 12:13:34;;;;;;;14.15;3.08;;;9.50;75.60;;;;;;5075026;28;20041;-72
2021/03/12 12:16:00;;;;;;;7.10;2.95;;;9.60;74.60;;;;;;5075640;28;20425;-72
2021/03/12 12:18:26;;;;;;;11.95;2.67;;;9.70;74.50;;;;;;5073298;28;20119;-72
2021/03/12 12:20:52;;;;;;;10.77;2.70;;;9.90;74.00;;;;;;5073343;28;20035;-72
2021/03/12 12:23:18;;;;;;;12.50;2.72;;;10.00;73.90;;;;;;5074883;28;20533;-73
2021/03/12 12:25:43;;;;;;;14.15;2.88;;;10.20;73.60;;;;;;5075209;28;20061;-72
2021/03/12 12:28:10;;;;;;;11.43;2.92;;;10.30;72.80;;;;;;5074574;28;20024;-73
2021/03/12 12:30:36;;;;;;;12.13;3.00;;;10.30;71.70;;;;;;5073404;28;20032;-73
2021/03/12 12:33:02;;;;;;;10.95;2.50;;;10.20;71.80;;;;;;5074457;28;20431;-73
2021/03/12 12:35:27;;;;;;;7.95;2.47;;;10.20;71.60;;;;;;5074929;28;20029;-72
2021/03/12 12:37:53;;;;;;;10.02;2.30;;;10.10;72.00;;;;;;5073142;28;20539;-73
2021/03/12 12:40:21;;;;;;;9.43;2.63;;;10.00;72.00;;;;;;5074207;28;20112;-73
2021/03/12 12:42:48;;;;;;;10.30;2.97;;;9.90;72.00;;;;;;5074410;28;20476;-73
2021/03/12 12:45:14;;;;;;;9.10;2.17;;;10.00;72.10;;;;;;5074078;28;20107;-73
2021/03/12 12:47:40;;;;;;;8.35;2.53;;;9.90;71.70;;;;;;5072896;28;20024;-73
2021/03/12 12:50:07;;;;;;;8.55;2.30;;;9.90;71.20;;;;;;5072710;28;20111;-73
2021/03/12 12:52:33;;;;;;;9.23;2.63;;;9.80;71.70;;;;;;5072456;28;20028;-73
2021/03/12 12:55:06;;;;;;;9.95;2.67;;;9.80;71.90;;;;;;5074029;28;20140;-73
2021/03/12 12:57:32;;;;;;;9.73;2.05;;;9.80;72.30;;;;;;5072595;28;20021;-72
2021/03/12 12:59:57;;;;;;;6.70;1.95;;;9.80;72.70;;;;;;5073804;28;20396;-72
2021/03/12 13:02:23;;;;;;;10.48;2.17;;;9.80;72.80;;;;;;5072487;28;20407;-73
2021/03/12 13:04:49;;;;;;;10.02;2.20;;;9.80;72.90;;;;;;5073659;28;20411;-73